ADDS METAR Data INFO
IDs: Format: Raw Decoded Include TAF

Data at: 0839 UTC 21 Oct 2017

KAGS 210753Z AUTO 00000KT 9SM CLR 09/08 A3022 RMK AO2 SLP233 T00940083
KAGS 210653Z AUTO 00000KT 10SM CLR 09/09 A3023 RMK AO2 SLP237 T00940089
KAGS 210553Z AUTO 00000KT 10SM CLR 09/08 A3023 RMK AO2 SLP236 T00940083 10161 20094 51001
KAGS 210453Z AUTO 00000KT 10SM CLR 11/09 A3023 RMK AO2 SLP236 T01060094 402890061
KAGS 210353Z AUTO 00000KT 10SM CLR 11/10 A3023 RMK AO2 SLP236 T01110100
KAGS 210253Z 00000KT 10SM CLR 11/10 A3023 RMK AO2 SLP235 T01110100 53013
KAGS 210153Z 00000KT 10SM CLR 13/11 A3021 RMK AO2 SLP230 T01330106
KAGS 210053Z 00000KT 10SM CLR 13/11 A3020 RMK AO2 SLP224 T01330106
KAGS 202353Z 00000KT 10SM CLR 15/11 A3019 RMK AO2 SLP222 T01500111 10289 20150 53006
KAGS 202253Z 00000KT 10SM CLR 19/12 A3017 RMK AO2 SLP214 T01940122
KAGS 202153Z 16003KT 10SM CLR 27/09 A3017 RMK AO2 SLP214 T02670094
KAGS 202053Z 04005KT 10SM CLR 28/06 A3017 RMK AO2 SLP215 T02780056 56018
KAGS 201953Z 13006KT 10SM CLR 28/04 A3018 RMK AO2 SLP219 T02830044
KAGS 201853Z 00000KT 10SM CLR 28/07 A3020 RMK AO2 SLP225 T02780072
KAGS 201753Z VRB03KT 10SM CLR 26/09 A3022 RMK AO2 SLP233 T02610089 10267 20061 58024
KAGS 201653Z 04005KT 10SM CLR 25/09 A3026 RMK AO2 SLP247 T02500094
KAGS 201553Z 02003KT 10SM CLR 23/10 A3028 RMK AO2 SLP253 T02330100 $
KAGS 201453Z VRB03KT 10SM CLR 21/10 A3029 RMK AO2 SLP257 T02060100 50009 $
KAGS 201353Z 36004KT 10SM CLR 16/10 A3030 RMK AO2 SLP258 T01560100 $
KAGS 201253Z 00000KT 10SM CLR 11/09 A3029 RMK AO2 SLP255 T01110089 $
KAGS 201153Z 00000KT 10SM CLR 06/06 A3027 RMK AO2 SLP249 T00610056 10100 20061 51010 $
KAGS 201053Z 00000KT 10SM CLR 07/06 A3026 RMK AO2 SLP247 T00670056 $
KAGS 200953Z AUTO 00000KT CLR 08/06 A3025 RMK AO2 SLP241 T00780056 RVRNO $
KAGS 200853Z AUTO 00000KT CLR 07/06 A3024 RMK AO2 SLP238 T00720061 53002 RVRNO $
KAGS 200753Z AUTO 26003KT 10SM CLR 08/07 A3023 RMK AO2 SLP235 T00830072 $
KAGS 200653Z AUTO 00000KT 10SM CLR 08/07 A3023 RMK AO2 SLP237 T00830072 $
KAGS 200553Z AUTO 00000KT 10SM CLR 09/08 A3023 RMK AO2 SLP236 T00890078 10161 20089 58004 $
KAGS 200521Z AUTO 00000KT 3SM BR CLR 10/09 A3024 RMK AO2 T01000089 $
KAGS 200517Z AUTO 00000KT 1 1/4SM BR CLR 10/09 A3024 RMK AO2 T01000089 $
KAGS 200453Z AUTO 00000KT 10SM CLR 09/08 A3024 RMK AO2 SLP238 T00940083 402670067 $
KAGS 200416Z 00000KT 4SM BR CLR 11/09 A3025 RMK AO2 T01060094 $
KAGS 200409Z 00000KT 1 3/4SM BR CLR 11/09 A3025 RMK AO2 T01060094 $
KAGS 200353Z 00000KT 10SM CLR 11/09 A3025 RMK AO2 SLP241 T01110094 $
KAGS 200253Z 00000KT 10SM CLR 12/11 A3024 RMK AO2 SLP240 T01220106 51012 $
KAGS 200153Z 00000KT 10SM CLR 13/11 A3023 RMK AO2 SLP237 T01330106 $
KAGS 200053Z 00000KT 10SM CLR 14/11 A3022 RMK AO2 SLP232 T01440111 $
KAGS 192353Z 00000KT 10SM CLR 15/12 A3021 RMK AO2 SLP228 T01500122 10267 20150 53003 $
KAGS 192253Z 00000KT 10SM CLR 18/13 A3020 RMK AO2 SLP224 T01830128 $
KAGS 192153Z 06004KT 10SM CLR 26/09 A3019 RMK AO2 SLP223 T02560094 $
KAGS 192053Z 04004KT 10SM CLR 27/09 A3020 RMK AO2 SLP225 T02670089 56016 $